sensor_id;sensor_type;location;lat;lon;timestamp;P1;durP1;ratioP1;P2;durP2;ratioP2
30398;SDS011;17195;50.838;7.214;2023-12-20T00:02:16;7.05;;;6.00;;
30398;SDS011;17195;50.838;7.214;2023-12-20T00:04:42;8.85;;;6.53;;
30398;SDS011;17195;50.838;7.214;2023-12-20T00:07:07;8.52;;;7.30;;
30398;SDS011;17195;50.838;7.214;2023-12-20T00:09:33;8.43;;;6.57;;
30398;SDS011;17195;50.838;7.214;2023-12-20T00:11:58;8.40;;;6.47;;
30398;SDS011;17195;50.838;7.214;2023-12-20T00:14:24;8.52;;;6.75;;
30398;SDS011;17195;50.838;7.214;2023-12-20T00:16:49;8.85;;;6.53;;
30398;SDS011;17195;50.838;7.214;2023-12-20T00:19:15;8.80;;;6.78;;
30398;SDS011;17195;50.838;7.214;2023-12-20T00:21:41;7.47;;;6.38;;
30398;SDS011;17195;50.838;7.214;2023-12-20T00:24:07;7.80;;;6.90;;
30398;SDS011;17195;50.838;7.214;2023-12-20T00:26:32;7.22;;;5.97;;
30398;SDS011;17195;50.838;7.214;2023-12-20T00:28:58;8.52;;;7.32;;
30398;SDS011;17195;50.838;7.214;2023-12-20T00:31:23;9.95;;;7.43;;
30398;SDS011;17195;50.838;7.214;2023-12-20T00:33:49;10.55;;;7.72;;
30398;SDS011;17195;50.838;7.214;2023-12-20T00:36:14;8.57;;;7.35;;
30398;SDS011;17195;50.838;7.214;2023-12-20T00:38:40;10.57;;;7.75;;
30398;SDS011;17195;50.838;7.214;2023-12-20T00:41:06;25.38;;;16.00;;
30398;SDS011;17195;50.838;7.214;2023-12-20T00:43:31;15.32;;;10.60;;
30398;SDS011;17195;50.838;7.214;2023-12-20T00:45:57;16.92;;;11.02;;
30398;SDS011;17195;50.838;7.214;2023-12-20T00:48:22;13.82;;;9.35;;
30398;SDS011;17195;50.838;7.214;2023-12-20T00:50:48;20.98;;;12.95;;
30398;SDS011;17195;50.838;7.214;2023-12-20T00:53:13;15.43;;;9.82;;
30398;SDS011;17195;50.838;7.214;2023-12-20T00:55:39;14.85;;;10.48;;
30398;SDS011;17195;50.838;7.214;2023-12-20T00:58:05;14.13;;;9.75;;
30398;SDS011;17195;50.838;7.214;2023-12-20T01:00:31;15.73;;;11.00;;
30398;SDS011;17195;50.838;7.214;2023-12-20T01:02:56;14.02;;;9.85;;
30398;SDS011;17195;50.838;7.214;2023-12-20T01:05:22;14.90;;;9.93;;
30398;SDS011;17195;50.838;7.214;2023-12-20T01:07:48;14.75;;;10.05;;
30398;SDS011;17195;50.838;7.214;2023-12-20T01:10:14;14.98;;;10.00;;
30398;SDS011;17195;50.838;7.214;2023-12-20T01:12:40;14.80;;;8.18;;
30398;SDS011;17195;50.838;7.214;2023-12-20T01:15:05;10.13;;;8.10;;
30398;SDS011;17195;50.838;7.214;2023-12-20T01:17:31;11.70;;;8.02;;
30398;SDS011;17195;50.838;7.214;2023-12-20T01:19:56;10.02;;;7.20;;
30398;SDS011;17195;50.838;7.214;2023-12-20T01:22:23;9.23;;;6.95;;
30398;SDS011;17195;50.838;7.214;2023-12-20T01:24:48;11.27;;;7.50;;
30398;SDS011;17195;50.838;7.214;2023-12-20T01:27:14;10.30;;;5.97;;
30398;SDS011;17195;50.838;7.214;2023-12-20T01:29:39;9.15;;;5.65;;
30398;SDS011;17195;50.838;7.214;2023-12-20T01:32:05;7.38;;;4.82;;
30398;SDS011;17195;50.838;7.214;2023-12-20T01:34:31;10.57;;;4.68;;
30398;SDS011;17195;50.838;7.214;2023-12-20T01:36:57;9.48;;;4.90;;
30398;SDS011;17195;50.838;7.214;2023-12-20T01:39:22;7.97;;;4.50;;
30398;SDS011;17195;50.838;7.214;2023-12-20T01:41:48;9.23;;;4.00;;
30398;SDS011;17195;50.838;7.214;2023-12-20T01:44:14;5.82;;;3.85;;
30398;SDS011;17195;50.838;7.214;2023-12-20T01:46:39;8.00;;;4.60;;
30398;SDS011;17195;50.838;7.214;2023-12-20T01:49:06;7.30;;;4.95;;
30398;SDS011;17195;50.838;7.214;2023-12-20T01:51:31;6.90;;;5.25;;
30398;SDS011;17195;50.838;7.214;2023-12-20T01:53:58;10.07;;;5.50;;
30398;SDS011;17195;50.838;7.214;2023-12-20T01:56:25;8.70;;;5.38;;
30398;SDS011;17195;50.838;7.214;2023-12-20T01:58:53;11.75;;;6.38;;
30398;SDS011;17195;50.838;7.214;2023-12-20T02:01:19;10.52;;;5.97;;
30398;SDS011;17195;50.838;7.214;2023-12-20T02:03:45;11.50;;;6.55;;
30398;SDS011;17195;50.838;7.214;2023-12-20T02:06:11;9.88;;;5.70;;
30398;SDS011;17195;50.838;7.214;2023-12-20T02:08:37;8.90;;;5.80;;
30398;SDS011;17195;50.838;7.214;2023-12-20T02:11:02;12.93;;;6.30;;
30398;SDS011;17195;50.838;7.214;2023-12-20T02:13:28;11.98;;;6.43;;
30398;SDS011;17195;50.838;7.214;2023-12-20T02:15:56;15.40;;;7.10;;
30398;SDS011;17195;50.838;7.214;2023-12-20T02:18:22;15.93;;;8.00;;
30398;SDS011;17195;50.838;7.214;2023-12-20T02:20:48;14.15;;;8.65;;
30398;SDS011;17195;50.838;7.214;2023-12-20T02:23:14;15.77;;;8.68;;
30398;SDS011;17195;50.838;7.214;2023-12-20T02:25:39;17.98;;;9.50;;
30398;SDS011;17195;50.838;7.214;2023-12-20T02:28:05;17.17;;;10.18;;
30398;SDS011;17195;50.838;7.214;2023-12-20T02:30:31;17.75;;;9.48;;
30398;SDS011;17195;50.838;7.214;2023-12-20T02:32:57;18.25;;;8.95;;
30398;SDS011;17195;50.838;7.214;2023-12-20T02:35:25;17.48;;;8.27;;
30398;SDS011;17195;50.838;7.214;2023-12-20T02:37:51;18.52;;;7.85;;
30398;SDS011;17195;50.838;7.214;2023-12-20T02:40:16;11.77;;;7.18;;
30398;SDS011;17195;50.838;7.214;2023-12-20T02:42:42;14.70;;;6.40;;
30398;SDS011;17195;50.838;7.214;2023-12-20T02:45:08;14.30;;;6.35;;
30398;SDS011;17195;50.838;7.214;2023-12-20T02:47:34;14.65;;;6.07;;
30398;SDS011;17195;50.838;7.214;2023-12-20T02:49:59;15.05;;;5.97;;
30398;SDS011;17195;50.838;7.214;2023-12-20T02:52:25;21.42;;;5.90;;
30398;SDS011;17195;50.838;7.214;2023-12-20T02:54:52;10.20;;;5.03;;
30398;SDS011;17195;50.838;7.214;2023-12-20T02:57:18;15.20;;;5.10;;
30398;SDS011;17195;50.838;7.214;2023-12-20T02:59:43;11.27;;;5.70;;
30398;SDS011;17195;50.838;7.214;2023-12-20T03:02:09;14.15;;;5.00;;
30398;SDS011;17195;50.838;7.214;2023-12-20T03:04:34;17.23;;;4.85;;
30398;SDS011;17195;50.838;7.214;2023-12-20T03:07:00;14.07;;;5.35;;
30398;SDS011;17195;50.838;7.214;2023-12-20T03:09:25;20.02;;;4.38;;
30398;SDS011;17195;50.838;7.214;2023-12-20T03:11:51;18.70;;;3.88;;
30398;SDS011;17195;50.838;7.214;2023-12-20T03:14:16;11.80;;;4.18;;
30398;SDS011;17195;50.838;7.214;2023-12-20T03:16:46;17.30;;;3.97;;
30398;SDS011;17195;50.838;7.214;2023-12-20T03:19:12;15.00;;;3.55;;
30398;SDS011;17195;50.838;7.214;2023-12-20T03:21:38;17.35;;;3.58;;
30398;SDS011;17195;50.838;7.214;2023-12-20T03:24:03;12.73;;;2.97;;
30398;SDS011;17195;50.838;7.214;2023-12-20T03:26:29;10.50;;;2.78;;
30398;SDS011;17195;50.838;7.214;2023-12-20T03:28:55;14.38;;;2.80;;
30398;SDS011;17195;50.838;7.214;2023-12-20T03:31:20;17.90;;;3.35;;
30398;SDS011;17195;50.838;7.214;2023-12-20T03:33:46;14.93;;;3.38;;
30398;SDS011;17195;50.838;7.214;2023-12-20T03:36:12;11.35;;;2.75;;
30398;SDS011;17195;50.838;7.214;2023-12-20T03:38:38;13.40;;;3.47;;
30398;SDS011;17195;50.838;7.214;2023-12-20T03:41:04;15.30;;;3.40;;
30398;SDS011;17195;50.838;7.214;2023-12-20T03:43:29;17.40;;;3.45;;
30398;SDS011;17195;50.838;7.214;2023-12-20T03:45:55;16.00;;;3.75;;
30398;SDS011;17195;50.838;7.214;2023-12-20T03:48:20;20.08;;;3.33;;
30398;SDS011;17195;50.838;7.214;2023-12-20T03:50:46;14.75;;;3.45;;
30398;SDS011;17195;50.838;7.214;2023-12-20T03:53:12;16.05;;;2.90;;
30398;SDS011;17195;50.838;7.214;2023-12-20T03:55:37;13.45;;;3.33;;
30398;SDS011;17195;50.838;7.214;2023-12-20T03:58:03;18.30;;;3.28;;
30398;SDS011;17195;50.838;7.214;2023-12-20T04:00:28;17.17;;;3.30;;
30398;SDS011;17195;50.838;7.214;2023-12-20T04:02:54;16.65;;;2.90;;
30398;SDS011;17195;50.838;7.214;2023-12-20T04:05:19;12.60;;;3.28;;
30398;SDS011;17195;50.838;7.214;2023-12-20T04:07:45;14.85;;;3.47;;
30398;SDS011;17195;50.838;7.214;2023-12-20T04:10:10;18.55;;;3.13;;
30398;SDS011;17195;50.838;7.214;2023-12-20T04:12:36;13.15;;;2.65;;
30398;SDS011;17195;50.838;7.214;2023-12-20T04:15:02;11.55;;;3.33;;
30398;SDS011;17195;50.838;7.214;2023-12-20T04:17:33;15.82;;;2.95;;
30398;SDS011;17195;50.838;7.214;2023-12-20T04:19:59;17.42;;;2.90;;
30398;SDS011;17195;50.838;7.214;2023-12-20T04:22:25;15.25;;;3.13;;
30398;SDS011;17195;50.838;7.214;2023-12-20T04:24:50;15.43;;;3.65;;
30398;SDS011;17195;50.838;7.214;2023-12-20T04:27:16;15.93;;;3.47;;
30398;SDS011;17195;50.838;7.214;2023-12-20T04:29:41;15.43;;;3.30;;
30398;SDS011;17195;50.838;7.214;2023-12-20T04:32:07;20.55;;;3.78;;
30398;SDS011;17195;50.838;7.214;2023-12-20T04:34:33;22.30;;;4.47;;
30398;SDS011;17195;50.838;7.214;2023-12-20T04:36:58;17.85;;;3.58;;
30398;SDS011;17195;50.838;7.214;2023-12-20T04:39:24;14.82;;;4.13;;
30398;SDS011;17195;50.838;7.214;2023-12-20T04:41:49;14.82;;;4.65;;
30398;SDS011;17195;50.838;7.214;2023-12-20T04:44:15;16.42;;;3.97;;
30398;SDS011;17195;50.838;7.214;2023-12-20T04:46:41;17.83;;;3.65;;
30398;SDS011;17195;50.838;7.214;2023-12-20T04:49:06;12.50;;;3.45;;
30398;SDS011;17195;50.838;7.214;2023-12-20T04:51:35;17.08;;;3.65;;
30398;SDS011;17195;50.838;7.214;2023-12-20T04:54:01;15.52;;;3.80;;
30398;SDS011;17195;50.838;7.214;2023-12-20T04:56:27;17.52;;;3.20;;
30398;SDS011;17195;50.838;7.214;2023-12-20T04:58:53;20.30;;;3.72;;
30398;SDS011;17195;50.838;7.214;2023-12-20T05:01:18;17.35;;;3.60;;
30398;SDS011;17195;50.838;7.214;2023-12-20T05:03:44;15.98;;;2.92;;
30398;SDS011;17195;50.838;7.214;2023-12-20T05:06:10;18.65;;;3.55;;
30398;SDS011;17195;50.838;7.214;2023-12-20T05:08:35;21.10;;;3.55;;
30398;SDS011;17195;50.838;7.214;2023-12-20T05:11:01;23.45;;;3.70;;
30398;SDS011;17195;50.838;7.214;2023-12-20T05:13:27;14.82;;;3.83;;
30398;SDS011;17195;50.838;7.214;2023-12-20T05:15:52;14.60;;;3.85;;
30398;SDS011;17195;50.838;7.214;2023-12-20T05:18:18;19.30;;;4.20;;
30398;SDS011;17195;50.838;7.214;2023-12-20T05:20:43;18.10;;;4.47;;
30398;SDS011;17195;50.838;7.214;2023-12-20T05:23:09;15.75;;;3.83;;
30398;SDS011;17195;50.838;7.214;2023-12-20T05:25:34;26.70;;;4.25;;
30398;SDS011;17195;50.838;7.214;2023-12-20T05:28:00;13.90;;;3.85;;
30398;SDS011;17195;50.838;7.214;2023-12-20T05:30:26;18.55;;;4.18;;
30398;SDS011;17195;50.838;7.214;2023-12-20T05:32:51;18.52;;;4.57;;
30398;SDS011;17195;50.838;7.214;2023-12-20T05:35:17;22.13;;;4.43;;
30398;SDS011;17195;50.838;7.214;2023-12-20T05:37:43;17.33;;;4.50;;
30398;SDS011;17195;50.838;7.214;2023-12-20T05:40:08;16.83;;;4.97;;
30398;SDS011;17195;50.838;7.214;2023-12-20T05:42:37;19.17;;;4.40;;
30398;SDS011;17195;50.838;7.214;2023-12-20T05:45:03;21.98;;;5.75;;
30398;SDS011;17195;50.838;7.214;2023-12-20T05:47:29;17.60;;;4.53;;
30398;SDS011;17195;50.838;7.214;2023-12-20T05:49:55;18.17;;;4.63;;
30398;SDS011;17195;50.838;7.214;2023-12-20T05:52:20;20.80;;;5.07;;
30398;SDS011;17195;50.838;7.214;2023-12-20T05:54:46;20.58;;;4.55;;
30398;SDS011;17195;50.838;7.214;2023-12-20T05:57:12;32.47;;;5.30;;
30398;SDS011;17195;50.838;7.214;2023-12-20T05:59:38;27.92;;;5.47;;
30398;SDS011;17195;50.838;7.214;2023-12-20T06:02:03;20.67;;;4.38;;
30398;SDS011;17195;50.838;7.214;2023-12-20T06:04:29;18.48;;;4.03;;
30398;SDS011;17195;50.838;7.214;2023-12-20T06:06:55;17.17;;;5.30;;
30398;SDS011;17195;50.838;7.214;2023-12-20T06:09:21;19.73;;;5.05;;
30398;SDS011;17195;50.838;7.214;2023-12-20T06:11:46;17.33;;;4.90;;
30398;SDS011;17195;50.838;7.214;2023-12-20T06:14:12;18.38;;;5.07;;
30398;SDS011;17195;50.838;7.214;2023-12-20T06:16:37;22.67;;;5.47;;
30398;SDS011;17195;50.838;7.214;2023-12-20T06:19:03;22.88;;;5.85;;
30398;SDS011;17195;50.838;7.214;2023-12-20T06:21:28;14.15;;;4.93;;
30398;SDS011;17195;50.838;7.214;2023-12-20T06:23:54;20.63;;;6.55;;
30398;SDS011;17195;50.838;7.214;2023-12-20T06:26:19;19.15;;;4.88;;
30398;SDS011;17195;50.838;7.214;2023-12-20T06:28:45;24.20;;;4.53;;
30398;SDS011;17195;50.838;7.214;2023-12-20T06:31:11;23.95;;;5.43;;
30398;SDS011;17195;50.838;7.214;2023-12-20T06:33:36;21.05;;;6.22;;
30398;SDS011;17195;50.838;7.214;2023-12-20T06:36:05;22.38;;;5.78;;
30398;SDS011;17195;50.838;7.214;2023-12-20T06:38:31;20.40;;;7.03;;
30398;SDS011;17195;50.838;7.214;2023-12-20T06:40:56;20.95;;;6.22;;
30398;SDS011;17195;50.838;7.214;2023-12-20T06:43:23;24.98;;;6.07;;
30398;SDS011;17195;50.838;7.214;2023-12-20T06:45:49;23.38;;;7.07;;
30398;SDS011;17195;50.838;7.214;2023-12-20T06:48:14;22.90;;;5.97;;
30398;SDS011;17195;50.838;7.214;2023-12-20T06:50:40;23.52;;;8.05;;
30398;SDS011;17195;50.838;7.214;2023-12-20T06:53:06;24.52;;;6.25;;
30398;SDS011;17195;50.838;7.214;2023-12-20T06:55:35;17.42;;;4.72;;
30398;SDS011;17195;50.838;7.214;2023-12-20T06:58:02;16.98;;;4.97;;
30398;SDS011;17195;50.838;7.214;2023-12-20T07:00:28;25.42;;;5.50;;
30398;SDS011;17195;50.838;7.214;2023-12-20T07:02:54;15.98;;;3.92;;
30398;SDS011;17195;50.838;7.214;2023-12-20T07:05:20;23.02;;;4.80;;
30398;SDS011;17195;50.838;7.214;2023-12-20T07:07:45;24.30;;;4.90;;
30398;SDS011;17195;50.838;7.214;2023-12-20T07:10:12;19.10;;;4.78;;
30398;SDS011;17195;50.838;7.214;2023-12-20T07:12:38;20.63;;;4.18;;
30398;SDS011;17195;50.838;7.214;2023-12-20T07:15:03;19.50;;;4.63;;
30398;SDS011;17195;50.838;7.214;2023-12-20T07:17:30;13.73;;;3.78;;
30398;SDS011;17195;50.838;7.214;2023-12-20T07:19:58;16.75;;;4.07;;
30398;SDS011;17195;50.838;7.214;2023-12-20T07:22:23;15.55;;;3.70;;
30398;SDS011;17195;50.838;7.214;2023-12-20T07:24:49;18.38;;;3.90;;
30398;SDS011;17195;50.838;7.214;2023-12-20T07:27:17;12.57;;;3.30;;
30398;SDS011;17195;50.838;7.214;2023-12-20T07:29:42;14.15;;;3.25;;
30398;SDS011;17195;50.838;7.214;2023-12-20T07:32:08;16.75;;;4.05;;
30398;SDS011;17195;50.838;7.214;2023-12-20T07:34:33;22.02;;;4.10;;
30398;SDS011;17195;50.838;7.214;2023-12-20T07:36:59;19.75;;;3.90;;
30398;SDS011;17195;50.838;7.214;2023-12-20T07:39:25;16.33;;;3.30;;
30398;SDS011;17195;50.838;7.214;2023-12-20T07:41:50;16.33;;;3.60;;
30398;SDS011;17195;50.838;7.214;2023-12-20T07:44:16;28.10;;;4.38;;
30398;SDS011;17195;50.838;7.214;2023-12-20T07:46:41;22.35;;;3.65;;
30398;SDS011;17195;50.838;7.214;2023-12-20T07:49:07;21.50;;;4.90;;
30398;SDS011;17195;50.838;7.214;2023-12-20T07:51:33;14.93;;;3.83;;
30398;SDS011;17195;50.838;7.214;2023-12-20T07:53:59;25.75;;;4.60;;
30398;SDS011;17195;50.838;7.214;2023-12-20T07:56:24;21.67;;;4.10;;
30398;SDS011;17195;50.838;7.214;2023-12-20T07:58:50;20.65;;;3.97;;
30398;SDS011;17195;50.838;7.214;2023-12-20T08:01:16;20.88;;;4.03;;
30398;SDS011;17195;50.838;7.214;2023-12-20T08:03:43;20.48;;;4.15;;
30398;SDS011;17195;50.838;7.214;2023-12-20T08:06:08;19.67;;;3.33;;
30398;SDS011;17195;50.838;7.214;2023-12-20T08:08:34;17.23;;;3.42;;
30398;SDS011;17195;50.838;7.214;2023-12-20T08:10:59;14.98;;;3.53;;
30398;SDS011;17195;50.838;7.214;2023-12-20T08:13:26;20.90;;;3.97;;
30398;SDS011;17195;50.838;7.214;2023-12-20T08:15:52;15.98;;;3.15;;
30398;SDS011;17195;50.838;7.214;2023-12-20T08:18:18;14.70;;;3.10;;
30398;SDS011;17195;50.838;7.214;2023-12-20T08:20:44;16.40;;;4.13;;
30398;SDS011;17195;50.838;7.214;2023-12-20T08:23:09;17.23;;;3.70;;
30398;SDS011;17195;50.838;7.214;2023-12-20T08:25:35;16.63;;;3.45;;
30398;SDS011;17195;50.838;7.214;2023-12-20T08:28:02;16.10;;;3.40;;
30398;SDS011;17195;50.838;7.214;2023-12-20T08:30:29;15.93;;;3.30;;
30398;SDS011;17195;50.838;7.214;2023-12-20T08:32:56;19.13;;;4.13;;
30398;SDS011;17195;50.838;7.214;2023-12-20T08:35:21;18.25;;;3.80;;
30398;SDS011;17195;50.838;7.214;2023-12-20T08:37:47;17.85;;;3.78;;
30398;SDS011;17195;50.838;7.214;2023-12-20T08:40:12;19.20;;;3.75;;
30398;SDS011;17195;50.838;7.214;2023-12-20T08:42:38;17.85;;;4.32;;
30398;SDS011;17195;50.838;7.214;2023-12-20T08:45:04;17.48;;;3.60;;
30398;SDS011;17195;50.838;7.214;2023-12-20T08:47:30;20.70;;;3.85;;
30398;SDS011;17195;50.838;7.214;2023-12-20T08:49:55;24.48;;;3.20;;
30398;SDS011;17195;50.838;7.214;2023-12-20T08:52:23;19.67;;;3.33;;
30398;SDS011;17195;50.838;7.214;2023-12-20T08:54:49;18.30;;;3.72;;
30398;SDS011;17195;50.838;7.214;2023-12-20T08:57:17;19.45;;;4.00;;
30398;SDS011;17195;50.838;7.214;2023-12-20T08:59:45;14.45;;;3.15;;
30398;SDS011;17195;50.838;7.214;2023-12-20T09:02:11;17.80;;;4.20;;
30398;SDS011;17195;50.838;7.214;2023-12-20T09:04:36;17.60;;;3.50;;
30398;SDS011;17195;50.838;7.214;2023-12-20T09:07:02;16.05;;;3.55;;
30398;SDS011;17195;50.838;7.214;2023-12-20T09:09:28;16.75;;;3.28;;
30398;SDS011;17195;50.838;7.214;2023-12-20T09:11:53;18.95;;;3.33;;
30398;SDS011;17195;50.838;7.214;2023-12-20T09:14:19;12.15;;;2.88;;
30398;SDS011;17195;50.838;7.214;2023-12-20T09:16:44;16.90;;;3.22;;
30398;SDS011;17195;50.838;7.214;2023-12-20T09:19:10;20.42;;;3.63;;
30398;SDS011;17195;50.838;7.214;2023-12-20T09:21:35;17.17;;;3.30;;
30398;SDS011;17195;50.838;7.214;2023-12-20T09:24:01;13.73;;;2.92;;
30398;SDS011;17195;50.838;7.214;2023-12-20T09:26:26;16.17;;;4.03;;
30398;SDS011;17195;50.838;7.214;2023-12-20T09:28:52;19.40;;;3.88;;
30398;SDS011;17195;50.838;7.214;2023-12-20T09:31:17;10.48;;;2.65;;
30398;SDS011;17195;50.838;7.214;2023-12-20T09:33:43;12.65;;;3.15;;
30398;SDS011;17195;50.838;7.214;2023-12-20T09:36:08;13.63;;;2.58;;
30398;SDS011;17195;50.838;7.214;2023-12-20T09:38:34;15.45;;;3.90;;
30398;SDS011;17195;50.838;7.214;2023-12-20T09:41:00;17.15;;;4.00;;
30398;SDS011;17195;50.838;7.214;2023-12-20T09:43:27;19.70;;;3.35;;
30398;SDS011;17195;50.838;7.214;2023-12-20T09:45:54;15.80;;;3.00;;
30398;SDS011;17195;50.838;7.214;2023-12-20T09:48:25;13.05;;;2.80;;
30398;SDS011;17195;50.838;7.214;2023-12-20T09:50:52;13.07;;;4.30;;
30398;SDS011;17195;50.838;7.214;2023-12-20T09:53:18;17.40;;;3.63;;
30398;SDS011;17195;50.838;7.214;2023-12-20T09:55:46;15.73;;;3.65;;
30398;SDS011;17195;50.838;7.214;2023-12-20T09:58:11;15.77;;;2.75;;
30398;SDS011;17195;50.838;7.214;2023-12-20T10:00:37;12.48;;;3.00;;
30398;SDS011;17195;50.838;7.214;2023-12-20T10:03:02;15.20;;;3.50;;
30398;SDS011;17195;50.838;7.214;2023-12-20T10:05:31;13.85;;;3.00;;
30398;SDS011;17195;50.838;7.214;2023-12-20T10:07:57;20.10;;;3.95;;
30398;SDS011;17195;50.838;7.214;2023-12-20T10:10:24;15.98;;;3.05;;
30398;SDS011;17195;50.838;7.214;2023-12-20T10:15:29;15.15;;;3.55;;
30398;SDS011;17195;50.838;7.214;2023-12-20T10:17:55;13.68;;;2.38;;
30398;SDS011;17195;50.838;7.214;2023-12-20T10:20:21;13.90;;;3.05;;
30398;SDS011;17195;50.838;7.214;2023-12-20T10:22:47;19.45;;;3.03;;
30398;SDS011;17195;50.838;7.214;2023-12-20T10:25:14;19.25;;;3.35;;
30398;SDS011;17195;50.838;7.214;2023-12-20T10:27:39;14.13;;;3.97;;
30398;SDS011;17195;50.838;7.214;2023-12-20T10:30:05;12.45;;;2.53;;
30398;SDS011;17195;50.838;7.214;2023-12-20T10:32:31;17.52;;;3.03;;
30398;SDS011;17195;50.838;7.214;2023-12-20T10:34:57;18.85;;;2.92;;
30398;SDS011;17195;50.838;7.214;2023-12-20T10:37:24;14.95;;;2.70;;
30398;SDS011;17195;50.838;7.214;2023-12-20T10:39:50;18.90;;;3.55;;
30398;SDS011;17195;50.838;7.214;2023-12-20T10:42:22;16.00;;;2.72;;
30398;SDS011;17195;50.838;7.214;2023-12-20T10:44:51;16.90;;;2.63;;
30398;SDS011;17195;50.838;7.214;2023-12-20T10:47:18;16.08;;;2.88;;
30398;SDS011;17195;50.838;7.214;2023-12-20T10:49:45;10.65;;;2.65;;
30398;SDS011;17195;50.838;7.214;2023-12-20T10:52:11;15.75;;;2.45;;
30398;SDS011;17195;50.838;7.214;2023-12-20T10:54:38;13.02;;;2.80;;
30398;SDS011;17195;50.838;7.214;2023-12-20T10:57:07;19.95;;;4.95;;
30398;SDS011;17195;50.838;7.214;2023-12-20T10:59:33;15.82;;;2.90;;
30398;SDS011;17195;50.838;7.214;2023-12-20T11:02:05;16.83;;;3.00;;
30398;SDS011;17195;50.838;7.214;2023-12-20T11:04:33;12.00;;;2.50;;
30398;SDS011;17195;50.838;7.214;2023-12-20T11:07:22;11.88;;;2.95;;
30398;SDS011;17195;50.838;7.214;2023-12-20T11:09:58;10.10;;;2.25;;
30398;SDS011;17195;50.838;7.214;2023-12-20T11:12:32;15.95;;;2.78;;
30398;SDS011;17195;50.838;7.214;2023-12-20T11:15:05;19.75;;;3.55;;
30398;SDS011;17195;50.838;7.214;2023-12-20T11:17:32;12.63;;;2.30;;
30398;SDS011;17195;50.838;7.214;2023-12-20T11:22:27;13.55;;;2.75;;
30398;SDS011;17195;50.838;7.214;2023-12-20T11:24:56;14.00;;;2.75;;
30398;SDS011;17195;50.838;7.214;2023-12-20T11:27:27;10.52;;;2.80;;
30398;SDS011;17195;50.838;7.214;2023-12-20T11:29:53;10.98;;;2.70;;
30398;SDS011;17195;50.838;7.214;2023-12-20T11:34:50;13.60;;;2.72;;
30398;SDS011;17195;50.838;7.214;2023-12-20T11:37:16;15.65;;;2.72;;
30398;SDS011;17195;50.838;7.214;2023-12-20T11:39:44;12.15;;;2.67;;
30398;SDS011;17195;50.838;7.214;2023-12-20T11:42:10;9.38;;;2.67;;
30398;SDS011;17195;50.838;7.214;2023-12-20T11:44:36;14.65;;;2.60;;
30398;SDS011;17195;50.838;7.214;2023-12-20T11:47:02;12.93;;;2.50;;
30398;SDS011;17195;50.838;7.214;2023-12-20T11:49:28;17.67;;;2.78;;
30398;SDS011;17195;50.838;7.214;2023-12-20T11:51:55;20.38;;;2.40;;
30398;SDS011;17195;50.838;7.214;2023-12-20T11:54:21;9.52;;;2.20;;
30398;SDS011;17195;50.838;7.214;2023-12-20T11:56:47;12.38;;;2.35;;
30398;SDS011;17195;50.838;7.214;2023-12-20T11:59:13;12.23;;;2.78;;
30398;SDS011;17195;50.838;7.214;2023-12-20T12:01:40;15.25;;;2.97;;
30398;SDS011;17195;50.838;7.214;2023-12-20T12:04:12;14.38;;;3.08;;
30398;SDS011;17195;50.838;7.214;2023-12-20T12:06:37;17.88;;;3.00;;
30398;SDS011;17195;50.838;7.214;2023-12-20T12:09:03;11.02;;;2.25;;
30398;SDS011;17195;50.838;7.214;2023-12-20T12:11:29;17.25;;;3.08;;
30398;SDS011;17195;50.838;7.214;2023-12-20T12:13:55;15.73;;;2.58;;
30398;SDS011;17195;50.838;7.214;2023-12-20T12:16:20;10.23;;;2.78;;
30398;SDS011;17195;50.838;7.214;2023-12-20T12:18:46;14.60;;;2.65;;
30398;SDS011;17195;50.838;7.214;2023-12-20T12:21:19;14.23;;;3.08;;
30398;SDS011;17195;50.838;7.214;2023-12-20T12:23:45;11.40;;;2.67;;
30398;SDS011;17195;50.838;7.214;2023-12-20T12:26:11;17.95;;;3.50;;
30398;SDS011;17195;50.838;7.214;2023-12-20T12:28:39;14.18;;;2.95;;
30398;SDS011;17195;50.838;7.214;2023-12-20T12:31:06;12.23;;;2.50;;
30398;SDS011;17195;50.838;7.214;2023-12-20T12:33:32;11.05;;;2.30;;
30398;SDS011;17195;50.838;7.214;2023-12-20T12:35:57;15.57;;;3.22;;
30398;SDS011;17195;50.838;7.214;2023-12-20T12:38:24;15.70;;;2.78;;
30398;SDS011;17195;50.838;7.214;2023-12-20T12:40:50;18.35;;;3.17;;
30398;SDS011;17195;50.838;7.214;2023-12-20T12:43:18;13.07;;;3.03;;
30398;SDS011;17195;50.838;7.214;2023-12-20T12:45:44;15.18;;;3.08;;
30398;SDS011;17195;50.838;7.214;2023-12-20T12:48:09;12.20;;;3.00;;
30398;SDS011;17195;50.838;7.214;2023-12-20T12:50:35;16.00;;;2.72;;
30398;SDS011;17195;50.838;7.214;2023-12-20T12:53:00;16.38;;;2.80;;
30398;SDS011;17195;50.838;7.214;2023-12-20T12:55:27;13.70;;;3.25;;
30398;SDS011;17195;50.838;7.214;2023-12-20T12:57:53;9.35;;;2.13;;
30398;SDS011;17195;50.838;7.214;2023-12-20T13:00:19;13.25;;;2.97;;
30398;SDS011;17195;50.838;7.214;2023-12-20T13:02:45;15.68;;;2.72;;
30398;SDS011;17195;50.838;7.214;2023-12-20T13:05:10;11.50;;;2.83;;
30398;SDS011;17195;50.838;7.214;2023-12-20T13:07:36;16.60;;;3.38;;
30398;SDS011;17195;50.838;7.214;2023-12-20T13:10:02;11.45;;;2.40;;
30398;SDS011;17195;50.838;7.214;2023-12-20T13:12:29;11.07;;;2.55;;
30398;SDS011;17195;50.838;7.214;2023-12-20T13:14:54;13.13;;;2.88;;
30398;SDS011;17195;50.838;7.214;2023-12-20T13:17:20;12.30;;;3.67;;
30398;SDS011;17195;50.838;7.214;2023-12-20T13:19:46;11.95;;;2.88;;
30398;SDS011;17195;50.838;7.214;2023-12-20T13:22:11;15.10;;;3.28;;
30398;SDS011;17195;50.838;7.214;2023-12-20T13:24:37;10.23;;;2.65;;
30398;SDS011;17195;50.838;7.214;2023-12-20T13:27:02;20.27;;;7.53;;
30398;SDS011;17195;50.838;7.214;2023-12-20T13:29:28;17.70;;;5.18;;
30398;SDS011;17195;50.838;7.214;2023-12-20T13:31:54;12.88;;;3.20;;
30398;SDS011;17195;50.838;7.214;2023-12-20T13:34:19;12.77;;;3.40;;
30398;SDS011;17195;50.838;7.214;2023-12-20T13:36:46;20.52;;;5.28;;
30398;SDS011;17195;50.838;7.214;2023-12-20T13:39:12;16.40;;;4.60;;
30398;SDS011;17195;50.838;7.214;2023-12-20T13:41:38;23.63;;;5.22;;
30398;SDS011;17195;50.838;7.214;2023-12-20T13:44:04;15.85;;;3.90;;
30398;SDS011;17195;50.838;7.214;2023-12-20T13:46:30;15.88;;;4.00;;
30398;SDS011;17195;50.838;7.214;2023-12-20T13:48:56;15.90;;;4.30;;
30398;SDS011;17195;50.838;7.214;2023-12-20T13:51:21;17.38;;;4.97;;
30398;SDS011;17195;50.838;7.214;2023-12-20T13:53:47;23.05;;;5.93;;
30398;SDS011;17195;50.838;7.214;2023-12-20T13:56:13;11.80;;;4.53;;
30398;SDS011;17195;50.838;7.214;2023-12-20T13:58:39;26.58;;;5.85;;
30398;SDS011;17195;50.838;7.214;2023-12-20T14:01:06;15.55;;;4.93;;
30398;SDS011;17195;50.838;7.214;2023-12-20T14:03:33;18.10;;;4.55;;
30398;SDS011;17195;50.838;7.214;2023-12-20T14:05:59;15.55;;;3.78;;
30398;SDS011;17195;50.838;7.214;2023-12-20T14:08:26;18.55;;;3.80;;
30398;SDS011;17195;50.838;7.214;2023-12-20T14:10:52;14.13;;;4.03;;
30398;SDS011;17195;50.838;7.214;2023-12-20T14:13:18;13.40;;;3.85;;
30398;SDS011;17195;50.838;7.214;2023-12-20T14:15:44;19.63;;;3.75;;
30398;SDS011;17195;50.838;7.214;2023-12-20T14:18:09;20.58;;;4.03;;
30398;SDS011;17195;50.838;7.214;2023-12-20T14:20:35;16.55;;;4.22;;
30398;SDS011;17195;50.838;7.214;2023-12-20T14:23:01;26.52;;;5.60;;
30398;SDS011;17195;50.838;7.214;2023-12-20T14:25:28;12.45;;;4.00;;
30398;SDS011;17195;50.838;7.214;2023-12-20T14:27:53;19.45;;;4.80;;
30398;SDS011;17195;50.838;7.214;2023-12-20T14:30:19;18.45;;;3.67;;
30398;SDS011;17195;50.838;7.214;2023-12-20T14:32:45;24.20;;;6.10;;
30398;SDS011;17195;50.838;7.214;2023-12-20T14:35:12;11.43;;;4.25;;
30398;SDS011;17195;50.838;7.214;2023-12-20T14:37:38;14.68;;;3.97;;